sensor_id;sensor_type;location;lat;lon;timestamp;pressure;altitude;pressure_sealevel;temperature;humidity
25947;BME280;13745;51.470;9.894;2023-05-03T00:02:32;100462.03;;;11.24;56.08
25947;BME280;13745;51.470;9.894;2023-05-03T00:05:18;100455.97;;;11.15;56.09
25947;BME280;13745;51.470;9.894;2023-05-03T00:08:03;100462.00;;;11.05;56.16
25947;BME280;13745;51.470;9.894;2023-05-03T00:10:48;100468.91;;;10.95;56.32
25947;BME280;13745;51.470;9.894;2023-05-03T00:13:34;100467.16;;;10.86;56.22
25947;BME280;13745;51.470;9.894;2023-05-03T00:16:20;100459.34;;;10.77;56.22
25947;BME280;13745;51.470;9.894;2023-05-03T00:19:05;100462.78;;;10.70;56.22
25947;BME280;13745;51.470;9.894;2023-05-03T00:21:50;100454.97;;;10.62;56.36
25947;BME280;13745;51.470;9.894;2023-05-03T00:24:34;100454.91;;;10.56;56.46
25947;BME280;13745;51.470;9.894;2023-05-03T00:27:19;100457.47;;;10.50;56.29
25947;BME280;13745;51.470;9.894;2023-05-03T00:30:05;100465.25;;;10.46;56.35
25947;BME280;13745;51.470;9.894;2023-05-03T00:32:51;100466.09;;;10.40;56.37
25947;BME280;13745;51.470;9.894;2023-05-03T00:35:36;100466.94;;;10.34;56.29
25947;BME280;13745;51.470;9.894;2023-05-03T00:38:21;100470.34;;;10.29;56.21
25947;BME280;13745;51.470;9.894;2023-05-03T00:41:06;100470.28;;;10.21;56.54
25947;BME280;13745;51.470;9.894;2023-05-03T00:43:51;100474.56;;;10.16;56.33
25947;BME280;13745;51.470;9.894;2023-05-03T00:46:36;100477.13;;;10.10;56.46
25947;BME280;13745;51.470;9.894;2023-05-03T00:49:22;100480.53;;;10.04;56.49
25947;BME280;13745;51.470;9.894;2023-05-03T00:52:08;100479.63;;;9.99;56.42
25947;BME280;13745;51.470;9.894;2023-05-03T00:54:53;100478.72;;;9.93;56.34
25947;BME280;13745;51.470;9.894;2023-05-03T00:57:37;100477.84;;;9.89;56.43
25947;BME280;13745;51.470;9.894;2023-05-03T01:00:23;100480.38;;;9.84;56.68
25947;BME280;13745;51.470;9.894;2023-05-03T01:03:08;100482.94;;;9.80;56.70
25947;BME280;13745;51.470;9.894;2023-05-03T01:05:56;100476.91;;;9.76;56.49
25947;BME280;13745;51.470;9.894;2023-05-03T01:08:46;100478.56;;;9.73;56.68
25947;BME280;13745;51.470;9.894;2023-05-03T01:11:32;100475.97;;;9.68;56.77
25947;BME280;13745;51.470;9.894;2023-05-03T01:14:21;100471.59;;;9.64;56.77
25947;BME280;13745;51.470;9.894;2023-05-03T01:17:11;100468.13;;;9.61;56.82
25947;BME280;13745;51.470;9.894;2023-05-03T01:19:59;100475.00;;;9.57;56.80
25947;BME280;13745;51.470;9.894;2023-05-03T01:22:48;100469.81;;;9.54;56.76
25947;BME280;13745;51.470;9.894;2023-05-03T01:25:36;100470.63;;;9.50;56.71
25947;BME280;13745;51.470;9.894;2023-05-03T01:28:21;100471.44;;;9.44;56.77
25947;BME280;13745;51.470;9.894;2023-05-03T01:31:06;100473.97;;;9.40;56.50
25947;BME280;13745;51.470;9.894;2023-05-03T01:33:52;100473.06;;;9.35;56.82
25947;BME280;13745;51.470;9.894;2023-05-03T01:36:42;100475.63;;;9.30;56.95
25947;BME280;13745;51.470;9.894;2023-05-03T01:39:28;100472.13;;;9.26;56.85
25947;BME280;13745;51.470;9.894;2023-05-03T01:42:16;100473.81;;;9.21;56.91
25947;BME280;13745;51.470;9.894;2023-05-03T01:45:02;100480.66;;;9.18;56.62
25947;BME280;13745;51.470;9.894;2023-05-03T01:47:47;100483.22;;;9.13;56.66
25947;BME280;13745;51.470;9.894;2023-05-03T01:50:33;100487.47;;;9.10;56.95
25947;BME280;13745;51.470;9.894;2023-05-03T01:53:17;100489.16;;;9.05;56.85
25947;BME280;13745;51.470;9.894;2023-05-03T01:56:02;100489.09;;;9.00;57.04
25947;BME280;13745;51.470;9.894;2023-05-03T01:58:51;100489.06;;;8.94;56.89
25947;BME280;13745;51.470;9.894;2023-05-03T02:01:36;100491.59;;;8.91;56.84
25947;BME280;13745;51.470;9.894;2023-05-03T02:04:21;100485.53;;;8.89;56.96
25947;BME280;13745;51.470;9.894;2023-05-03T02:07:06;100487.19;;;8.84;57.17
25947;BME280;13745;51.470;9.894;2023-05-03T02:09:50;100490.59;;;8.80;56.94
25947;BME280;13745;51.470;9.894;2023-05-03T02:12:35;100489.69;;;8.76;57.29
25947;BME280;13745;51.470;9.894;2023-05-03T02:15:21;100487.06;;;8.73;57.03
25947;BME280;13745;51.470;9.894;2023-05-03T02:18:06;100485.31;;;8.69;57.11
25947;BME280;13745;51.470;9.894;2023-05-03T02:20:52;100482.69;;;8.67;57.10
25947;BME280;13745;51.470;9.894;2023-05-03T02:23:36;100489.56;;;8.65;57.08
25947;BME280;13745;51.470;9.894;2023-05-03T02:26:21;100492.97;;;8.63;56.78
25947;BME280;13745;51.470;9.894;2023-05-03T02:29:06;100492.97;;;8.63;57.35
25947;BME280;13745;51.470;9.894;2023-05-03T02:31:54;100491.19;;;8.59;57.33
25947;BME280;13745;51.470;9.894;2023-05-03T02:34:38;100496.34;;;8.57;57.36
25947;BME280;13745;51.470;9.894;2023-05-03T02:37:25;100510.13;;;8.56;56.89
25947;BME280;13745;51.470;9.894;2023-05-03T02:40:10;100503.22;;;8.54;56.89
25947;BME280;13745;51.470;9.894;2023-05-03T02:42:55;100503.97;;;8.48;56.77
25947;BME280;13745;51.470;9.894;2023-05-03T02:45:44;100510.78;;;8.43;57.07
25947;BME280;13745;51.470;9.894;2023-05-03T02:48:32;100510.75;;;8.38;57.12
25947;BME280;13745;51.470;9.894;2023-05-03T02:51:17;100514.06;;;8.33;56.90
25947;BME280;13745;51.470;9.894;2023-05-03T02:54:01;100505.34;;;8.26;56.79
25947;BME280;13745;51.470;9.894;2023-05-03T02:56:46;100512.13;;;8.18;57.04
25947;BME280;13745;51.470;9.894;2023-05-03T02:59:31;100509.50;;;8.13;56.93
25947;BME280;13745;51.470;9.894;2023-05-03T03:02:17;100518.03;;;8.09;57.19
25947;BME280;13745;51.470;9.894;2023-05-03T03:05:03;100523.13;;;8.05;57.35
25947;BME280;13745;51.470;9.894;2023-05-03T03:07:49;100524.84;;;8.03;57.43
25947;BME280;13745;51.470;9.894;2023-05-03T03:10:34;100520.44;;;7.99;57.52
25947;BME280;13745;51.470;9.894;2023-05-03T03:13:21;100522.94;;;7.94;57.09
25947;BME280;13745;51.470;9.894;2023-05-03T03:16:06;100527.22;;;7.91;57.61
25947;BME280;13745;51.470;9.894;2023-05-03T03:18:52;100528.88;;;7.87;57.31
25947;BME280;13745;51.470;9.894;2023-05-03T03:21:39;100526.25;;;7.85;57.21
25947;BME280;13745;51.470;9.894;2023-05-03T03:24:24;100527.06;;;7.81;57.32
25947;BME280;13745;51.470;9.894;2023-05-03T03:27:10;100535.66;;;7.80;57.41
25947;BME280;13745;51.470;9.894;2023-05-03T03:29:54;100539.09;;;7.79;57.75
25947;BME280;13745;51.470;9.894;2023-05-03T03:32:39;100533.00;;;7.77;57.50
25947;BME280;13745;51.470;9.894;2023-05-03T03:35:29;100529.59;;;7.78;57.75
25947;BME280;13745;51.470;9.894;2023-05-03T03:38:16;100531.25;;;7.75;57.53
25947;BME280;13745;51.470;9.894;2023-05-03T03:41:08;100532.06;;;7.72;57.46
25947;BME280;13745;51.470;9.894;2023-05-03T03:43:53;100545.84;;;7.73;57.36
25947;BME280;13745;51.470;9.894;2023-05-03T03:46:38;100544.97;;;7.71;57.85
25947;BME280;13745;51.470;9.894;2023-05-03T03:49:23;100544.97;;;7.71;57.80
25947;BME280;13745;51.470;9.894;2023-05-03T03:52:08;100548.31;;;7.67;57.94
25947;BME280;13745;51.470;9.894;2023-05-03T03:54:55;100543.13;;;7.64;57.52
25947;BME280;13745;51.470;9.894;2023-05-03T03:57:40;100548.25;;;7.62;57.33
25947;BME280;13745;51.470;9.894;2023-05-03T04:00:25;100545.63;;;7.60;57.88
25947;BME280;13745;51.470;9.894;2023-05-03T04:03:20;100549.97;;;7.62;58.05
25947;BME280;13745;51.470;9.894;2023-05-03T04:06:05;100546.53;;;7.63;57.63
25947;BME280;13745;51.470;9.894;2023-05-03T04:08:50;100549.97;;;7.62;57.66
25947;BME280;13745;51.470;9.894;2023-05-03T04:11:37;100547.31;;;7.58;57.65
25947;BME280;13745;51.470;9.894;2023-05-03T04:14:23;100542.09;;;7.54;57.66
25947;BME280;13745;51.470;9.894;2023-05-03T04:17:09;100545.44;;;7.50;57.60
25947;BME280;13745;51.470;9.894;2023-05-03T04:19:55;100549.72;;;7.48;57.83
25947;BME280;13745;51.470;9.894;2023-05-03T04:22:39;100550.56;;;7.47;57.65
25947;BME280;13745;51.470;9.894;2023-05-03T04:25:26;100552.28;;;7.48;58.09
25947;BME280;13745;51.470;9.894;2023-05-03T04:28:18;100542.00;;;7.49;57.86
25947;BME280;13745;51.470;9.894;2023-05-03T04:31:05;100539.38;;;7.48;58.30
25947;BME280;13745;51.470;9.894;2023-05-03T04:33:53;100541.13;;;7.49;58.10
25947;BME280;13745;51.470;9.894;2023-05-03T04:36:38;100542.84;;;7.50;57.87
25947;BME280;13745;51.470;9.894;2023-05-03T04:39:26;100548.13;;;7.54;58.17
25947;BME280;13745;51.470;9.894;2023-05-03T04:42:12;100545.59;;;7.59;57.93
25947;BME280;13745;51.470;9.894;2023-05-03T04:44:58;100547.41;;;7.63;58.07
25947;BME280;13745;51.470;9.894;2023-05-03T04:47:45;100550.91;;;7.67;57.79
25947;BME280;13745;51.470;9.894;2023-05-03T04:50:30;100557.91;;;7.74;58.45
25947;BME280;13745;51.470;9.894;2023-05-03T04:53:16;100545.91;;;7.77;58.03
25947;BME280;13745;51.470;9.894;2023-05-03T04:56:06;100553.75;;;7.82;58.47
25947;BME280;13745;51.470;9.894;2023-05-03T04:58:54;100555.56;;;7.87;58.00
25947;BME280;13745;51.470;9.894;2023-05-03T05:01:40;100556.50;;;7.94;57.80
25947;BME280;13745;51.470;9.894;2023-05-03T05:04:26;100565.25;;;8.02;58.25
25947;BME280;13745;51.470;9.894;2023-05-03T05:07:10;100572.25;;;8.09;58.35
25947;BME280;13745;51.470;9.894;2023-05-03T05:09:56;100564.59;;;8.14;57.61
25947;BME280;13745;51.470;9.894;2023-05-03T05:12:41;100577.66;;;8.23;57.74
25947;BME280;13745;51.470;9.894;2023-05-03T05:15:25;100577.78;;;8.32;57.88
25947;BME280;13745;51.470;9.894;2023-05-03T05:18:12;100578.81;;;8.42;57.91
25947;BME280;13745;51.470;9.894;2023-05-03T05:20:58;100576.34;;;8.51;58.23
25947;BME280;13745;51.470;9.894;2023-05-03T05:23:43;100572.22;;;8.61;57.78
25947;BME280;13745;51.470;9.894;2023-05-03T05:26:28;100573.22;;;8.72;57.82
25947;BME280;13745;51.470;9.894;2023-05-03T05:29:13;100565.59;;;8.81;58.16
25947;BME280;13745;51.470;9.894;2023-05-03T05:31:58;100577.78;;;8.91;57.91
25947;BME280;13745;51.470;9.894;2023-05-03T05:34:47;100569.28;;;9.01;57.65
25947;BME280;13745;51.470;9.894;2023-05-03T05:38:25;100577.22;;;9.15;58.00
25947;BME280;13745;51.470;9.894;2023-05-03T05:41:13;100567.03;;;9.29;58.07
25947;BME280;13745;51.470;9.894;2023-05-03T05:44:00;100568.88;;;9.42;58.04
25947;BME280;13745;51.470;9.894;2023-05-03T05:46:47;100569.03;;;9.56;57.71
25947;BME280;13745;51.470;9.894;2023-05-03T05:49:33;100574.34;;;9.70;57.96
25947;BME280;13745;51.470;9.894;2023-05-03T05:52:19;100573.59;;;9.83;57.88
25947;BME280;13745;51.470;9.894;2023-05-03T05:55:06;100571.97;;;9.94;57.86
25947;BME280;13745;51.470;9.894;2023-05-03T05:57:52;100574.66;;;10.03;57.83
25947;BME280;13745;51.470;9.894;2023-05-03T06:00:41;100579.91;;;10.17;57.70
25947;BME280;13745;51.470;9.894;2023-05-03T06:03:26;100584.38;;;10.32;57.81
25947;BME280;13745;51.470;9.894;2023-05-03T06:06:11;100579.31;;;10.46;57.53
25947;BME280;13745;51.470;9.894;2023-05-03T06:08:56;100581.09;;;10.57;57.55
25947;BME280;13745;51.470;9.894;2023-05-03T06:11:42;100585.50;;;10.71;57.56
25947;BME280;13745;51.470;9.894;2023-05-03T06:14:29;100580.41;;;10.84;57.47
25947;BME280;13745;51.470;9.894;2023-05-03T06:17:14;100588.22;;;10.98;57.53
25947;BME280;13745;51.470;9.894;2023-05-03T06:19:59;100583.09;;;11.12;57.38
25947;BME280;13745;51.470;9.894;2023-05-03T06:22:44;100582.28;;;11.23;57.36
25947;BME280;13745;51.470;9.894;2023-05-03T06:25:30;100582.31;;;11.37;57.42
25947;BME280;13745;51.470;9.894;2023-05-03T06:28:16;100583.22;;;11.50;57.20
25947;BME280;13745;51.470;9.894;2023-05-03T06:31:01;100577.19;;;11.65;57.39
25947;BME280;13745;51.470;9.894;2023-05-03T06:33:48;100576.34;;;11.76;57.30
25947;BME280;13745;51.470;9.894;2023-05-03T06:36:33;100573.81;;;11.92;57.30
25947;BME280;13745;51.470;9.894;2023-05-03T06:39:19;100578.13;;;12.05;57.12
25947;BME280;13745;51.470;9.894;2023-05-03T06:42:04;100583.34;;;12.09;57.61
25947;BME280;13745;51.470;9.894;2023-05-03T06:44:55;100583.34;;;12.26;57.71
25947;BME280;13745;51.470;9.894;2023-05-03T06:47:41;100571.16;;;12.45;57.71
25947;BME280;13745;51.470;9.894;2023-05-03T06:50:26;100578.94;;;12.68;57.55
25947;BME280;13745;51.470;9.894;2023-05-03T06:53:11;100571.06;;;12.85;57.45
25947;BME280;13745;51.470;9.894;2023-05-03T06:55:56;100579.69;;;13.02;57.12
25947;BME280;13745;51.470;9.894;2023-05-03T06:58:41;100570.94;;;13.18;57.17
25947;BME280;13745;51.470;9.894;2023-05-03T07:01:28;100579.56;;;13.34;57.04
25947;BME280;13745;51.470;9.894;2023-05-03T07:04:13;100582.06;;;13.51;56.82
25947;BME280;13745;51.470;9.894;2023-05-03T07:06:58;100581.13;;;13.66;56.68
25947;BME280;13745;51.470;9.894;2023-05-03T07:09:43;100576.66;;;13.82;56.47
25947;BME280;13745;51.470;9.894;2023-05-03T07:12:28;100579.16;;;13.95;56.65
25947;BME280;13745;51.470;9.894;2023-05-03T07:15:14;100583.38;;;14.10;56.47
25947;BME280;13745;51.470;9.894;2023-05-03T07:18:01;100576.31;;;14.24;56.34
25947;BME280;13745;51.470;9.894;2023-05-03T07:20:47;100579.66;;;14.39;56.09
25947;BME280;13745;51.470;9.894;2023-05-03T07:23:32;100580.41;;;14.54;55.93
25947;BME280;13745;51.470;9.894;2023-05-03T07:26:17;100569.81;;;14.70;55.56
25947;BME280;13745;51.470;9.894;2023-05-03T07:29:03;100578.31;;;14.85;55.78
25947;BME280;13745;51.470;9.894;2023-05-03T07:31:48;100572.06;;;15.00;55.39
25947;BME280;13745;51.470;9.894;2023-05-03T07:34:34;100569.25;;;15.14;55.26
25947;BME280;13745;51.470;9.894;2023-05-03T07:37:20;100561.25;;;15.28;55.11
25947;BME280;13745;51.470;9.894;2023-05-03T07:40:06;100560.22;;;15.41;54.72
25947;BME280;13745;51.470;9.894;2023-05-03T07:42:52;100560.00;;;15.55;54.37
25947;BME280;13745;51.470;9.894;2023-05-03T07:45:37;100556.34;;;15.69;54.22
25947;BME280;13745;51.470;9.894;2023-05-03T07:48:22;100563.09;;;15.84;53.89
25947;BME280;13745;51.470;9.894;2023-05-03T07:51:09;100559.38;;;15.99;53.63
25947;BME280;13745;51.470;9.894;2023-05-03T07:53:54;100563.41;;;16.17;53.29
25947;BME280;13745;51.470;9.894;2023-05-03T07:56:39;100555.47;;;16.21;52.91
25947;BME280;13745;51.470;9.894;2023-05-03T07:59:24;100559.69;;;16.30;52.82
25947;BME280;13745;51.470;9.894;2023-05-03T08:02:09;100563.91;;;16.37;52.89
25947;BME280;13745;51.470;9.894;2023-05-03T08:04:54;100559.22;;;16.56;52.60
25947;BME280;13745;51.470;9.894;2023-05-03T08:07:41;100553.56;;;16.79;52.46
25947;BME280;13745;51.470;9.894;2023-05-03T08:10:26;100550.75;;;16.90;52.06
25947;BME280;13745;51.470;9.894;2023-05-03T08:13:11;100549.53;;;17.06;51.45
25947;BME280;13745;51.470;9.894;2023-05-03T08:15:56;100538.75;;;17.20;51.22
25947;BME280;13745;51.470;9.894;2023-05-03T08:18:41;100541.00;;;17.36;51.19
25947;BME280;13745;51.470;9.894;2023-05-03T08:21:26;100542.38;;;17.54;50.67
25947;BME280;13745;51.470;9.894;2023-05-03T08:24:12;100537.53;;;17.75;50.69
25947;BME280;13745;51.470;9.894;2023-05-03T08:26:57;100543.19;;;17.93;49.99
25947;BME280;13745;51.470;9.894;2023-05-03T08:29:43;100535.75;;;18.11;49.75
25947;BME280;13745;51.470;9.894;2023-05-03T08:32:28;100533.59;;;18.27;49.59
25947;BME280;13745;51.470;9.894;2023-05-03T08:35:14;100540.97;;;18.45;49.40
25947;BME280;13745;51.470;9.894;2023-05-03T08:37:59;100524.84;;;18.59;49.23
25947;BME280;13745;51.470;9.894;2023-05-03T08:40:47;100522.00;;;18.68;48.43
25947;BME280;13745;51.470;9.894;2023-05-03T08:43:37;100523.50;;;18.76;48.39
25947;BME280;13745;51.470;9.894;2023-05-03T08:46:27;100518.75;;;18.89;48.21
25947;BME280;13745;51.470;9.894;2023-05-03T08:49:13;100527.28;;;18.97;47.76
25947;BME280;13745;51.470;9.894;2023-05-03T08:51:58;100533.19;;;19.05;47.01
25947;BME280;13745;51.470;9.894;2023-05-03T08:54:44;100529.47;;;19.11;47.02
25947;BME280;13745;51.470;9.894;2023-05-03T08:57:32;100529.38;;;19.16;47.05
25947;BME280;13745;51.470;9.894;2023-05-03T09:00:18;100534.22;;;19.28;47.21
25947;BME280;13745;51.470;9.894;2023-05-03T09:03:03;100532.84;;;19.44;46.70
25947;BME280;13745;51.470;9.894;2023-05-03T09:05:48;100523.72;;;19.57;47.02
25947;BME280;13745;51.470;9.894;2023-05-03T09:08:41;100517.00;;;19.75;46.53
25947;BME280;13745;51.470;9.894;2023-05-03T09:11:28;100526.03;;;19.93;46.25
25947;BME280;13745;51.470;9.894;2023-05-03T09:14:16;100522.91;;;20.08;45.83
25947;BME280;13745;51.470;9.894;2023-05-03T09:17:13;100526.66;;;20.28;46.03
25947;BME280;13745;51.470;9.894;2023-05-03T09:19:59;100522.13;;;20.56;46.10
25947;BME280;13745;51.470;9.894;2023-05-03T09:22:49;100525.16;;;20.94;46.21
25947;BME280;13745;51.470;9.894;2023-05-03T09:25:42;100532.81;;;21.47;46.27
25947;BME280;13745;51.470;9.894;2023-05-03T09:28:27;100532.69;;;22.14;45.40
25947;BME280;13745;51.470;9.894;2023-05-03T09:31:14;100531.75;;;22.76;44.09
25947;BME280;13745;51.470;9.894;2023-05-03T09:33:59;100523.78;;;23.15;44.06
25947;BME280;13745;51.470;9.894;2023-05-03T09:36:45;100530.66;;;23.19;43.86
25947;BME280;13745;51.470;9.894;2023-05-03T09:39:30;100522.72;;;23.19;43.34
25947;BME280;13745;51.470;9.894;2023-05-03T09:42:17;100527.09;;;23.20;42.91
25947;BME280;13745;51.470;9.894;2023-05-03T09:45:04;100519.22;;;23.19;42.37
25947;BME280;13745;51.470;9.894;2023-05-03T09:47:53;100517.94;;;23.09;41.80
25947;BME280;13745;51.470;9.894;2023-05-03T09:50:38;100520.78;;;23.04;42.28
25947;BME280;13745;51.470;9.894;2023-05-03T09:53:25;100514.22;;;22.94;41.45
25947;BME280;13745;51.470;9.894;2023-05-03T09:56:11;100504.00;;;22.86;41.74
25947;BME280;13745;51.470;9.894;2023-05-03T09:58:56;100512.00;;;22.83;42.23
25947;BME280;13745;51.470;9.894;2023-05-03T10:01:42;100508.81;;;22.77;41.58
25947;BME280;13745;51.470;9.894;2023-05-03T10:04:37;100507.97;;;22.76;41.89
25947;BME280;13745;51.470;9.894;2023-05-03T10:07:24;100500.03;;;22.76;42.01
25947;BME280;13745;51.470;9.894;2023-05-03T10:10:13;100498.16;;;22.78;42.07
25947;BME280;13745;51.470;9.894;2023-05-03T10:12:59;100497.38;;;22.76;42.45
25947;BME280;13745;51.470;9.894;2023-05-03T10:15:46;100501.75;;;22.77;41.77
25947;BME280;13745;51.470;9.894;2023-05-03T10:18:33;100492.13;;;22.75;41.68
25947;BME280;13745;51.470;9.894;2023-05-03T10:21:32;100493.88;;;22.76;42.15
25947;BME280;13745;51.470;9.894;2023-05-03T10:24:20;100488.22;;;22.83;41.79
25947;BME280;13745;51.470;9.894;2023-05-03T10:29:51;100486.91;;;22.93;41.64
25947;BME280;13745;51.470;9.894;2023-05-03T10:32:37;100486.59;;;22.99;41.65
25947;BME280;13745;51.470;9.894;2023-05-03T10:35:27;100486.19;;;23.09;42.08
25947;BME280;13745;51.470;9.894;2023-05-03T10:38:14;100481.25;;;23.20;41.92
25947;BME280;13745;51.470;9.894;2023-05-03T10:40:59;100478.84;;;23.33;41.20
25947;BME280;13745;51.470;9.894;2023-05-03T10:43:46;100471.28;;;23.44;41.36
25947;BME280;13745;51.470;9.894;2023-05-03T10:46:34;100475.34;;;23.51;41.54
25947;BME280;13745;51.470;9.894;2023-05-03T10:49:20;100476.53;;;23.63;41.36
25947;BME280;13745;51.470;9.894;2023-05-03T10:55:26;100478.25;;;23.81;40.71
25947;BME280;13745;51.470;9.894;2023-05-03T10:58:12;100477.03;;;23.88;40.10
25947;BME280;13745;51.470;9.894;2023-05-03T11:01:01;100469.53;;;23.96;40.91
25947;BME280;13745;51.470;9.894;2023-05-03T11:03:51;100473.69;;;24.02;40.19
25947;BME280;13745;51.470;9.894;2023-05-03T11:06:39;100466.41;;;24.05;39.60
25947;BME280;13745;51.470;9.894;2023-05-03T11:09:30;100466.50;;;24.04;40.01
25947;BME280;13745;51.470;9.894;2023-05-03T11:12:17;100465.47;;;24.06;40.32
25947;BME280;13745;51.470;9.894;2023-05-03T11:15:02;100467.91;;;24.11;40.69
25947;BME280;13745;51.470;9.894;2023-05-03T11:17:48;100464.09;;;24.17;39.71
25947;BME280;13745;51.470;9.894;2023-05-03T11:20:34;100453.50;;;24.17;39.42
25947;BME280;13745;51.470;9.894;2023-05-03T11:23:24;100463.78;;;24.05;39.26
25947;BME280;13745;51.470;9.894;2023-05-03T11:26:10;100455.22;;;24.00;39.49
25947;BME280;13745;51.470;9.894;2023-05-03T11:28:57;100457.25;;;23.95;39.07
25947;BME280;13745;51.470;9.894;2023-05-03T11:31:42;100453.81;;;23.93;39.06
25947;BME280;13745;51.470;9.894;2023-05-03T11:34:28;100452.25;;;23.89;39.32
25947;BME280;13745;51.470;9.894;2023-05-03T11:37:14;100442.38;;;23.75;38.68
25947;BME280;13745;51.470;9.894;2023-05-03T11:40:00;100440.09;;;23.68;39.26
25947;BME280;13745;51.470;9.894;2023-05-03T11:42:52;100440.31;;;23.63;40.01
25947;BME280;13745;51.470;9.894;2023-05-03T11:45:40;100431.53;;;23.63;39.83
25947;BME280;13745;51.470;9.894;2023-05-03T11:48:26;100431.53;;;23.63;39.11
25947;BME280;13745;51.470;9.894;2023-05-03T11:51:20;100431.63;;;23.61;39.13
25947;BME280;13745;51.470;9.894;2023-05-03T11:54:05;100423.50;;;23.64;39.82
25947;BME280;13745;51.470;9.894;2023-05-03T11:56:54;100425.94;;;23.69;40.03
25947;BME280;13745;51.470;9.894;2023-05-03T11:59:40;100427.34;;;23.76;39.84
25947;BME280;13745;51.470;9.894;2023-05-03T12:02:28;100421.88;;;23.79;39.88
25947;BME280;13745;51.470;9.894;2023-05-03T12:05:13;100425.47;;;23.78;40.16
25947;BME280;13745;51.470;9.894;2023-05-03T12:07:58;100425.47;;;23.78;39.38
25947;BME280;13745;51.470;9.894;2023-05-03T12:10:44;100424.59;;;23.77;40.15
25947;BME280;13745;51.470;9.894;2023-05-03T12:13:31;100423.84;;;23.75;39.94
25947;BME280;13745;51.470;9.894;2023-05-03T12:16:18;100420.16;;;23.78;40.22
25947;BME280;13745;51.470;9.894;2023-05-03T12:19:06;100418.13;;;23.83;39.62
25947;BME280;13745;51.470;9.894;2023-05-03T12:21:51;100408.78;;;23.93;39.76
25947;BME280;13745;51.470;9.894;2023-05-03T12:24:36;100410.00;;;24.03;40.20
25947;BME280;13745;51.470;9.894;2023-05-03T12:27:21;100412.25;;;24.11;40.41
25947;BME280;13745;51.470;9.894;2023-05-03T12:30:07;100405.06;;;24.13;39.74
25947;BME280;13745;51.470;9.894;2023-05-03T12:32:53;100405.94;;;24.14;40.03
25947;BME280;13745;51.470;9.894;2023-05-03T12:35:40;100392.69;;;24.14;39.83
25947;BME280;13745;51.470;9.894;2023-05-03T12:38:25;100394.41;;;24.15;39.91
25947;BME280;13745;51.470;9.894;2023-05-03T12:41:10;100403.28;;;24.14;39.93
25947;BME280;13745;51.470;9.894;2023-05-03T12:43:56;100392.84;;;24.10;40.04
25947;BME280;13745;51.470;9.894;2023-05-03T12:46:42;100400.19;;;24.05;40.17
25947;BME280;13745;51.470;9.894;2023-05-03T12:49:27;100394.44;;;23.97;40.20
25947;BME280;13745;51.470;9.894;2023-05-03T12:52:13;100386.97;;;23.88;39.99
25947;BME280;13745;51.470;9.894;2023-05-03T12:54:59;100373.19;;;23.81;39.79
25947;BME280;13745;51.470;9.894;2023-05-03T12:57:44;100376.00;;;23.78;39.39
25947;BME280;13745;51.470;9.894;2023-05-03T13:00:30;100377.63;;;23.81;39.55
25947;BME280;13745;51.470;9.894;2023-05-03T13:03:16;100366.25;;;23.79;40.55
25947;BME280;13745;51.470;9.894;2023-05-03T13:06:01;100367.97;;;23.80;40.44
25947;BME280;13745;51.470;9.894;2023-05-03T13:08:49;100363.69;;;23.77;40.00
25947;BME280;13745;51.470;9.894;2023-05-03T13:11:35;100368.06;;;23.78;40.43
25947;BME280;13745;51.470;9.894;2023-05-03T13:14:20;100361.03;;;23.77;40.38
25947;BME280;13745;51.470;9.894;2023-05-03T13:17:06;100362.66;;;23.80;39.85
25947;BME280;13745;51.470;9.894;2023-05-03T13:19:51;100356.28;;;23.84;40.08
25947;BME280;13745;51.470;9.894;2023-05-03T13:22:37;100348.94;;;23.89;40.50
25947;BME280;13745;51.470;9.894;2023-05-03T13:25:24;100345.34;;;23.90;40.89
25947;BME280;13745;51.470;9.894;2023-05-03T13:28:09;100344.34;;;23.93;40.62
25947;BME280;13745;51.470;9.894;2023-05-03T13:30:54;100345.13;;;23.95;39.91
25947;BME280;13745;51.470;9.894;2023-05-03T13:33:39;100338.22;;;23.92;40.03
25947;BME280;13745;51.470;9.894;2023-05-03T13:36:25;100334.75;;;23.90;40.34
25947;BME280;13745;51.470;9.894;2023-05-03T13:39:10;100329.00;;;23.82;40.68
25947;BME280;13745;51.470;9.894;2023-05-03T13:41:57;100328.56;;;23.74;40.32
25947;BME280;13745;51.470;9.894;2023-05-03T13:44:43;100323.59;;;23.68;40.86
25947;BME280;13745;51.470;9.894;2023-05-03T13:47:28;100323.91;;;23.62;40.84
25947;BME280;13745;51.470;9.894;2023-05-03T13:50:14;100318.81;;;23.57;40.79
25947;BME280;13745;51.470;9.894;2023-05-03T13:52:59;100314.63;;;23.53;41.08
25947;BME280;13745;51.470;9.894;2023-05-03T13:55:44;100306.91;;;23.48;40.93
25947;BME280;13745;51.470;9.894;2023-05-03T13:58:31;100308.31;;;23.38;40.52
25947;BME280;13745;51.470;9.894;2023-05-03T14:01:17;100306.78;;;23.34;41.07
25947;BME280;13745;51.470;9.894;2023-05-03T14:04:03;100298.97;;;23.31;41.43
25947;BME280;13745;51.470;9.894;2023-05-03T14:06:49;100299.91;;;23.30;41.13
25947;BME280;13745;51.470;9.894;2023-05-03T14:09:34;100297.28;;;23.30;41.11
25947;BME280;13745;51.470;9.894;2023-05-03T14:12:22;100297.44;;;23.27;40.67
25947;BME280;13745;51.470;9.894;2023-05-03T14:15:10;100288.00;;;23.21;41.11
25947;BME280;13745;51.470;9.894;2023-05-03T14:17:56;100293.53;;;23.17;40.88
25947;BME280;13745;51.470;9.894;2023-05-03T14:20:41;100292.84;;;23.13;41.43
25947;BME280;13745;51.470;9.894;2023-05-03T14:23:26;100289.56;;;23.08;41.43
25947;BME280;13745;51.470;9.894;2023-05-03T14:26:11;100287.16;;;23.04;41.33
25947;BME280;13745;51.470;9.894;2023-05-03T14:28:57;100280.38;;;22.98;41.35
25947;BME280;13745;51.470;9.894;2023-05-03T14:31:44;100276.97;;;22.96;41.16
25947;BME280;13745;51.470;9.894;2023-05-03T14:34:29;100278.84;;;22.94;41.29
25947;BME280;13745;51.470;9.894;2023-05-03T14:37:14;100279.81;;;22.91;41.76
25947;BME280;13745;51.470;9.894;2023-05-03T14:40:00;100280.16;;;22.85;41.08